Time;durP1;ratioP1;P1;durP2;ratioP2;P2;SDS_P1;SDS_P2;PMS_P1;PMS_P2;Temp;Humidity;BMP_temperature;BMP_pressure;BME280_temperature;BME280_humidity;BME280_pressure;Samples;Min_cycle;Max_cycle;Signal;HPM_P1;HPM_P2
2021/05/05 00:00:34;;;;;;;3.23;0.37;;;;;;;5.91;90.13;95161.38;5050567;28;20505;-81
2021/05/05 00:03:00;;;;;;;0.50;0.30;;;;;;;5.84;90.30;95156.94;5070760;28;20037;-81
2021/05/05 00:05:26;;;;;;;2.57;0.27;;;;;;;5.80;89.49;95166.88;5063481;28;20021;-81
2021/05/05 00:07:51;;;;;;;0.23;0.23;;;;;;;5.82;90.54;95157.06;5061311;28;20056;-81
2021/05/05 00:10:19;;;;;;;1.90;0.50;;;;;;;5.76;90.55;95151.66;5057144;28;20028;-81
2021/05/05 00:12:46;;;;;;;1.50;0.53;;;;;;;5.73;90.53;95149.38;5069464;28;20029;-81
2021/05/05 00:15:17;;;;;;;1.23;0.37;;;;;;;5.80;91.45;95153.81;5065022;28;20059;-81
2021/05/05 00:17:44;;;;;;;2.00;0.50;;;;;;;5.68;90.75;95153.25;5061407;28;20085;-82
2021/05/05 00:20:11;;;;;;;1.43;0.40;;;;;;;5.62;90.30;95145.25;5056925;28;20025;-81
2021/05/05 00:22:37;;;;;;;1.70;0.40;;;;;;;5.58;89.92;95146.53;5056331;28;20041;-81
2021/05/05 00:25:05;;;;;;;5.67;0.70;;;;;;;5.55;90.09;95139.00;5062353;28;20095;-81
2021/05/05 00:27:36;;;;;;;2.97;0.60;;;;;;;5.59;90.18;95143.75;5070773;28;20922;-81
2021/05/05 00:30:04;;;;;;;2.07;0.60;;;;;;;5.52;89.66;95141.94;5069449;28;20052;-81
2021/05/05 00:32:30;;;;;;;2.77;0.57;;;;;;;5.62;90.14;95142.63;5058029;28;20032;-81
2021/05/05 00:34:55;;;;;;;1.77;0.50;;;;;;;5.63;90.57;95133.81;5057143;28;20044;-82
2021/05/05 00:37:21;;;;;;;1.77;0.67;;;;;;;5.72;90.31;95137.31;5061679;28;20043;-81
2021/05/05 00:39:47;;;;;;;2.23;0.53;;;;;;;5.64;89.55;95120.66;5060896;28;20064;-81
2021/05/05 00:42:16;;;;;;;5.20;0.80;;;;;;;5.65;89.70;95111.03;5052138;28;20112;-81
2021/05/05 00:44:41;;;;;;;3.07;0.77;;;;;;;5.59;90.04;95103.81;5052738;28;20047;-79
2021/05/05 00:47:07;;;;;;;3.23;0.80;;;;;;;5.58;90.22;95100.41;5066322;28;20017;-80
2021/05/05 00:49:33;;;;;;;4.47;0.70;;;;;;;5.46;89.58;95096.41;5061824;28;20156;-81
2021/05/05 00:51:59;;;;;;;1.20;0.50;;;;;;;5.59;90.50;95098.59;5062948;28;20056;-81
2021/05/05 00:54:24;;;;;;;4.00;0.60;;;;;;;5.55;89.91;95102.50;5058370;28;20044;-81
2021/05/05 00:56:51;;;;;;;5.23;1.47;;;;;;;5.60;90.13;95118.50;5056452;28;20453;-81
2021/05/05 00:59:29;;;;;;;2.70;0.77;;;;;;;5.61;90.09;95126.16;5070201;28;20047;-81
2021/05/05 01:01:55;;;;;;;1.30;0.50;;;;;;;5.60;90.37;95131.53;5037646;28;20045;-81
2021/05/05 01:04:20;;;;;;;1.80;0.50;;;;;;;5.56;90.50;95132.81;5064711;28;20370;-81
2021/05/05 01:06:47;;;;;;;2.30;0.70;;;;;;;5.49;89.97;95142.22;5064439;28;20037;-81
2021/05/05 01:09:14;;;;;;;4.57;0.70;;;;;;;5.44;91.49;95127.06;5052956;28;20070;-81
2021/05/05 01:11:41;;;;;;;2.33;0.80;;;;;;;5.42;91.20;95126.38;5062468;28;20029;-81
2021/05/05 01:14:10;;;;;;;3.73;0.97;;;;;;;5.40;92.24;95131.78;5066695;28;20017;-81
2021/05/05 01:16:36;;;;;;;2.13;0.70;;;;;;;5.46;92.42;95134.72;5059523;28;20043;-81
2021/05/05 01:19:03;;;;;;;6.57;0.80;;;;;;;5.36;92.51;95127.81;5061724;28;20028;-81
2021/05/05 01:21:28;;;;;;;4.73;1.00;;;;;;;5.27;93.02;95126.16;5058375;28;20033;-82
2021/05/05 01:23:54;;;;;;;2.03;0.57;;;;;;;5.31;92.75;95111.84;5045799;28;20022;-82
2021/05/05 01:26:20;;;;;;;5.03;0.90;;;;;;;5.18;92.33;95114.84;5045733;28;20517;-81
2021/05/05 01:28:48;;;;;;;6.13;1.17;;;;;;;5.24;92.82;95118.63;5042483;28;20029;-81
2021/05/05 01:31:16;;;;;;;4.17;0.87;;;;;;;5.25;92.55;95115.06;5057579;28;20033;-82
2021/05/05 01:33:43;;;;;;;4.13;0.90;;;;;;;5.25;92.41;95122.06;5061194;28;20131;-81
2021/05/05 01:36:15;;;;;;;6.10;1.40;;;;;;;5.27;92.67;95110.53;5055541;28;20040;-81
2021/05/05 01:38:41;;;;;;;2.77;0.70;;;;;;;5.24;91.70;95110.00;5059291;28;20028;-81
2021/05/05 01:41:07;;;;;;;7.63;0.80;;;;;;;5.18;92.54;95090.59;5065239;28;20029;-81
2021/05/05 01:43:32;;;;;;;3.53;0.80;;;;;;;5.12;91.78;95089.41;5069603;28;20036;-81
2021/05/05 01:46:04;;;;;;;5.03;1.00;;;;;;;5.16;92.59;95077.72;5061361;28;20025;-81
2021/05/05 01:48:32;;;;;;;3.63;0.77;;;;;;;5.07;92.18;95080.44;5052128;28;20378;-81
2021/05/05 01:51:00;;;;;;;5.10;1.00;;;;;;;5.13;92.44;95071.97;5069578;28;20024;-81
2021/05/05 01:53:28;;;;;;;5.33;1.20;;;;;;;5.15;91.77;95070.03;5075347;28;20078;-81
2021/05/05 01:55:53;;;;;;;7.03;1.60;;;;;;;5.01;91.47;95070.63;5061416;28;20028;-82
2021/05/05 01:58:27;;;;;;;2.97;0.97;;;;;;;5.10;91.09;95059.28;5057011;28;20119;-81
2021/05/05 02:00:58;;;;;;;4.20;1.33;;;;;;;5.10;91.93;95064.50;5066731;28;20100;-81
2021/05/05 02:03:24;;;;;;;6.17;1.10;;;;;;;5.08;92.54;95076.84;5063282;28;20039;-81
2021/05/05 02:06:01;;;;;;;4.77;0.90;;;;;;;5.11;92.17;95079.16;5062762;28;20021;-81
2021/05/05 02:08:40;;;;;;;4.00;0.83;;;;;;;5.08;92.41;95075.03;5068805;28;20040;-81
2021/05/05 02:11:07;;;;;;;5.20;1.10;;;;;;;5.14;91.89;95077.03;5059560;28;20063;-81
2021/05/05 02:13:33;;;;;;;6.27;0.93;;;;;;;5.13;92.75;95059.78;5063422;28;20032;-81
2021/05/05 02:15:59;;;;;;;4.57;1.77;;;;;;;5.11;92.35;95068.72;5071972;28;20058;-81
2021/05/05 02:18:26;;;;;;;4.20;0.97;;;;;;;5.15;92.29;95072.66;5060163;28;20059;-81
2021/05/05 02:20:52;;;;;;;4.67;1.10;;;;;;;5.13;93.00;95074.56;5068661;28;20024;-81
2021/05/05 02:23:26;;;;;;;3.70;0.80;;;;;;;4.98;92.30;95076.94;5051794;28;20021;-82
2021/05/05 02:25:53;;;;;;;4.73;1.30;;;;;;;4.96;93.50;95069.28;5055496;28;20087;-81
2021/05/05 02:28:19;;;;;;;5.67;1.20;;;;;;;5.01;93.02;95068.81;5066858;28;20474;-81
2021/05/05 02:30:57;;;;;;;3.43;1.17;;;;;;;5.04;93.48;95065.09;5064823;28;20036;-81
2021/05/05 02:33:25;;;;;;;3.43;1.07;;;;;;;5.06;93.61;95056.13;5066868;28;20086;-81
2021/05/05 02:35:51;;;;;;;5.40;1.20;;;;;;;5.08;93.30;95061.22;5066532;28;20021;-82
2021/05/05 02:38:20;;;;;;;5.17;0.73;;;;;;;4.96;93.35;95061.47;5062831;28;20114;-79
2021/05/05 02:40:48;;;;;;;5.40;1.10;;;;;;;4.88;93.52;95066.63;5061057;28;20019;-80
2021/05/05 02:43:15;;;;;;;6.73;1.20;;;;;;;4.83;93.75;95065.44;5074626;28;20098;-80
2021/05/05 02:45:41;;;;;;;10.37;1.20;;;;;;;4.84;93.69;95064.47;5054148;28;20024;-80
2021/05/05 02:48:08;;;;;;;3.23;1.10;;;;;;;4.80;93.69;95058.75;5072319;28;20028;-80
2021/05/05 02:50:36;;;;;;;3.73;1.00;;;;;;;4.85;93.93;95059.09;5062694;28;20043;-80
2021/05/05 02:53:08;;;;;;;3.83;0.90;;;;;;;4.88;93.59;95056.19;5075744;28;20037;-80
2021/05/05 02:55:33;;;;;;;5.07;1.40;;;;;;;4.90;93.39;95054.25;5065155;28;20509;-80
2021/05/05 02:58:00;;;;;;;6.87;1.23;;;;;;;4.88;93.63;95058.00;5059985;28;20024;-80
2021/05/05 03:00:26;;;;;;;3.13;0.93;;;;;;;4.86;94.05;95067.72;5057251;28;20037;-81
2021/05/05 03:02:52;;;;;;;4.83;1.37;;;;;;;4.90;93.90;95069.09;5053642;28;20427;-81
2021/05/05 03:05:20;;;;;;;6.00;1.30;;;;;;;4.84;93.81;95060.09;5059005;28;20091;-81
2021/05/05 03:07:45;;;;;;;7.47;1.47;;;;;;;4.90;94.25;95054.25;5067145;28;20028;-81
2021/05/05 03:10:12;;;;;;;3.67;1.30;;;;;;;4.88;94.52;95043.16;5058593;28;20644;-80
2021/05/05 03:12:39;;;;;;;6.60;1.47;;;;;;;4.86;94.45;95057.31;5070059;28;20025;-80
2021/05/05 03:15:07;;;;;;;7.43;2.20;;;;;;;4.84;94.25;95064.47;5057943;28;20032;-80
2021/05/05 03:17:32;;;;;;;5.47;1.50;;;;;;;4.79;94.32;95077.94;5055806;28;20070;-81
2021/05/05 03:19:58;;;;;;;7.27;1.73;;;;;;;4.74;94.28;95085.41;5053489;28;20041;-81
2021/05/05 03:22:24;;;;;;;8.13;4.20;;;;;;;4.64;94.33;95082.06;5075150;28;20025;-81
2021/05/05 03:24:50;;;;;;;4.57;1.50;;;;;;;4.72;95.04;95082.13;5065646;28;20037;-81
2021/05/05 03:27:18;;;;;;;5.07;1.30;;;;;;;4.67;94.59;95079.19;5069467;28;20122;-81
2021/05/05 03:29:46;;;;;;;7.07;3.53;;;;;;;4.65;95.18;95074.09;5060871;28;20066;-82
2021/05/05 03:32:12;;;;;;;4.33;1.23;;;;;;;4.72;95.04;95051.69;5063936;28;20024;-81
2021/05/05 03:34:38;;;;;;;8.57;1.60;;;;;;;4.66;95.76;95057.53;5064151;28;20563;-80
2021/05/05 03:37:07;;;;;;;4.33;1.73;;;;;;;4.75;95.00;95058.38;5065090;28;20033;-81
2021/05/05 03:39:33;;;;;;;6.07;1.60;;;;;;;4.69;95.38;95053.78;5066728;28;20079;-81
2021/05/05 03:41:59;;;;;;;5.67;1.87;;;;;;;4.71;95.73;95059.66;5060335;28;20057;-80
2021/05/05 03:44:25;;;;;;;5.00;1.33;;;;;;;4.65;95.38;95053.28;5055185;28;20123;-80
2021/05/05 03:46:51;;;;;;;7.47;1.70;;;;;;;4.68;95.15;95044.34;5060939;28;20088;-81
2021/05/05 03:49:16;;;;;;;4.63;1.83;;;;;;;4.69;95.19;95040.75;5066956;28;20029;-82
2021/05/05 03:51:42;;;;;;;5.83;1.70;;;;;;;4.66;95.00;95041.91;5057743;28;20025;-81
2021/05/05 03:54:08;;;;;;;4.13;1.53;;;;;;;4.63;95.49;95044.00;5075681;28;20100;-81
2021/05/05 03:56:34;;;;;;;6.97;1.53;;;;;;;4.66;95.75;95036.69;5067049;28;20028;-81
2021/05/05 03:58:59;;;;;;;3.63;1.50;;;;;;;4.75;95.54;95044.56;5055393;28;20029;-81
2021/05/05 04:01:26;;;;;;;6.43;1.70;;;;;;;4.68;94.76;95037.34;5057661;28;20024;-81
2021/05/05 04:03:52;;;;;;;3.47;1.30;;;;;;;4.62;94.13;95037.13;5064518;28;20064;-80
2021/05/05 04:06:18;;;;;;;5.50;2.57;;;;;;;4.66;94.37;95041.06;5070930;28;20020;-81
2021/05/05 04:08:44;;;;;;;6.23;2.00;;;;;;;4.65;94.95;95047.25;5078363;28;20032;-81
2021/05/05 04:11:09;;;;;;;8.60;2.70;;;;;;;4.69;94.70;95041.59;5058074;28;20025;-81
2021/05/05 04:13:35;;;;;;;5.73;2.20;;;;;;;4.68;94.55;95045.16;5060991;28;20024;-81
2021/05/05 04:16:03;;;;;;;4.13;1.97;;;;;;;4.72;94.53;95037.84;5060911;28;20063;-81
2021/05/05 04:18:29;;;;;;;3.93;1.87;;;;;;;4.70;95.17;95042.41;5055713;28;20116;-81
2021/05/05 04:21:02;;;;;;;3.73;1.97;;;;;;;4.71;95.05;95044.03;5060989;28;20051;-81
2021/05/05 04:23:29;;;;;;;4.00;2.00;;;;;;;4.70;95.20;95047.63;5064780;28;20551;-80
2021/05/05 04:25:55;;;;;;;3.83;1.80;;;;;;;4.77;95.03;95048.66;5059469;28;20040;-81
2021/05/05 04:28:21;;;;;;;5.67;2.17;;;;;;;4.71;95.47;95044.03;5060883;28;20029;-81
2021/05/05 04:30:47;;;;;;;5.27;2.20;;;;;;;4.79;94.86;95051.91;5056511;28;20052;-81
2021/05/05 04:33:13;;;;;;;4.63;2.50;;;;;;;4.79;94.85;95054.50;5051316;28;20499;-81
2021/05/05 04:35:39;;;;;;;5.83;2.17;;;;;;;4.77;95.55;95061.66;5055053;28;20016;-81
2021/05/05 04:38:05;;;;;;;4.67;2.10;;;;;;;4.83;95.16;95055.84;5078283;28;20032;-82
2021/05/05 04:40:31;;;;;;;4.53;2.63;;;;;;;4.75;95.52;95057.56;5054736;28;20020;-81
2021/05/05 04:42:56;;;;;;;5.27;2.30;;;;;;;4.83;95.20;95057.63;5070466;28;20106;-81
2021/05/05 04:45:22;;;;;;;3.83;1.70;;;;;;;4.82;95.46;95058.59;5058300;28;20058;-81
2021/05/05 04:47:48;;;;;;;6.77;2.03;;;;;;;4.85;95.26;95066.91;5075961;28;20192;-83
2021/05/05 04:50:14;;;;;;;3.37;1.90;;;;;;;4.80;95.02;95078.78;5057665;28;20029;-82
2021/05/05 04:52:40;;;;;;;4.47;2.10;;;;;;;4.85;95.30;95077.34;5063174;28;20035;-82
2021/05/05 04:55:07;;;;;;;4.47;2.13;;;;;;;4.89;95.09;95078.66;5053246;28;20049;-81
2021/05/05 04:57:34;;;;;;;5.57;2.20;;;;;;;4.87;95.26;95091.03;5063483;28;20086;-82
2021/05/05 05:00:08;;;;;;;6.20;1.90;;;;;;;4.83;94.79;95094.94;5054429;28;20025;-82
2021/05/05 05:02:35;;;;;;;4.23;1.67;;;;;;;4.83;94.68;95102.75;5070762;28;20532;-81
2021/05/05 05:05:04;;;;;;;8.27;2.80;;;;;;;4.83;94.47;95101.91;5070551;28;20024;-81
2021/05/05 05:07:35;;;;;;;4.60;1.83;;;;;;;4.86;93.49;95101.59;5055363;28;20085;-81
2021/05/05 05:10:05;;;;;;;6.07;2.00;;;;;;;4.80;94.30;95121.28;5053993;28;20048;-82
2021/05/05 05:12:30;;;;;;;2.90;1.33;;;;;;;4.70;94.46;95125.75;5036034;28;20040;-80
2021/05/05 05:14:57;;;;;;;3.70;1.40;;;;;;;4.71;94.29;95129.97;5054420;28;20017;-82
2021/05/05 05:17:22;;;;;;;2.27;1.07;;;;;;;4.67;94.02;95141.66;5031200;28;20045;-82
2021/05/05 05:19:48;;;;;;;3.17;1.03;;;;;;;4.81;93.98;95135.91;5050863;28;20120;-82
2021/05/05 05:22:14;;;;;;;4.27;1.30;;;;;;;4.85;93.56;95137.25;5064396;28;20040;-82
2021/05/05 05:24:40;;;;;;;7.90;1.10;;;;;;;4.73;92.80;95135.88;5045310;28;20032;-81
2021/05/05 05:27:06;;;;;;;2.67;0.97;;;;;;;4.75;92.54;95143.50;5059653;28;20040;-82
2021/05/05 05:29:32;;;;;;;1.67;0.97;;;;;;;4.80;91.92;95141.28;5058410;28;20116;-81
2021/05/05 05:31:57;;;;;;;4.53;1.07;;;;;;;4.83;91.63;95156.59;5052787;28;20116;-81
2021/05/05 05:34:23;;;;;;;5.43;1.13;;;;;;;4.80;91.07;95160.34;5060069;28;20078;-80
2021/05/05 05:36:49;;;;;;;6.00;2.20;;;;;;;4.67;90.35;95165.91;5065219;28;20041;-81
2021/05/05 05:39:18;;;;;;;5.30;1.53;;;;;;;4.71;91.75;95177.66;5052931;28;20036;-81
2021/05/05 05:41:44;;;;;;;4.33;1.27;;;;;;;4.80;91.57;95173.38;5060133;28;20044;-81
2021/05/05 05:44:11;;;;;;;4.87;1.30;;;;;;;4.83;91.15;95170.47;5071965;28;20032;-81
2021/05/05 05:46:38;;;;;;;6.47;2.00;;;;;;;4.91;91.21;95172.31;5057945;28;20036;-81
2021/05/05 05:49:06;;;;;;;6.80;2.07;;;;;;;5.03;91.16;95167.66;5056006;28;20017;-81
2021/05/05 05:51:33;;;;;;;7.23;2.20;;;;;;;4.94;91.14;95177.22;5064276;28;20043;-81
2021/05/05 05:53:59;;;;;;;6.67;2.27;;;;;;;4.92;90.89;95181.75;5052597;28;20092;-82
2021/05/05 05:56:28;;;;;;;3.40;1.47;;;;;;;4.88;90.91;95181.25;5057574;28;20056;-81
2021/05/05 05:58:54;;;;;;;5.17;1.40;;;;;;;4.92;91.00;95182.56;5052477;28;20025;-80
2021/05/05 06:01:20;;;;;;;5.80;1.80;;;;;;;4.99;91.02;95174.16;5060644;28;20036;-83
2021/05/05 06:03:45;;;;;;;7.23;1.80;;;;;;;5.01;90.77;95165.22;5044380;28;20175;-82
2021/05/05 06:06:12;;;;;;;4.67;1.37;;;;;;;5.12;89.68;95157.16;5070327;28;20044;-81
2021/05/05 06:08:38;;;;;;;5.40;2.10;;;;;;;5.21;89.95;95160.66;5055695;28;20029;-81
2021/05/05 06:11:05;;;;;;;5.50;1.47;;;;;;;5.35;90.55;95147.03;5061181;28;20028;-82
2021/05/05 06:13:33;;;;;;;4.90;1.00;;;;;;;5.37;89.55;95145.13;5077581;28;20020;-81
2021/05/05 06:15:59;;;;;;;5.20;1.27;;;;;;;5.51;89.66;95163.78;5067462;28;20031;-81
2021/05/05 06:18:26;;;;;;;6.13;1.90;;;;;;;5.47;88.38;95178.09;5060942;28;20032;-81
2021/05/05 06:20:52;;;;;;;6.13;1.30;;;;;;;5.62;88.17;95181.75;5055184;28;20039;-80
2021/05/05 06:23:17;;;;;;;4.77;1.20;;;;;;;5.65;87.49;95173.63;5057414;28;20033;-82
2021/05/05 06:25:43;;;;;;;3.37;1.40;;;;;;;5.67;88.91;95182.94;5052751;28;20036;-81
2021/05/05 06:28:09;;;;;;;5.70;1.77;;;;;;;5.53;88.49;95198.31;5060597;28;20470;-81
2021/05/05 06:30:35;;;;;;;8.67;1.93;;;;;;;5.43;90.08;95204.47;5052214;28;20036;-81
2021/05/05 06:33:00;;;;;;;3.47;1.40;;;;;;;5.43;90.01;95198.41;5065452;28;20017;-80
2021/05/05 06:35:30;;;;;;;6.17;1.50;;;;;;;5.54;89.09;95192.16;5078660;28;20119;-81
2021/05/05 06:37:56;;;;;;;3.87;1.50;;;;;;;5.66;89.55;95203.94;5065869;28;20025;-81
2021/05/05 06:40:22;;;;;;;3.30;1.37;;;;;;;5.55;89.44;95219.84;5047838;28;20037;-81
2021/05/05 06:42:48;;;;;;;3.10;1.40;;;;;;;5.62;89.95;95215.66;5066233;28;20033;-81
2021/05/05 06:45:14;;;;;;;4.70;1.60;;;;;;;5.60;89.59;95218.44;5065173;28;20120;-78
2021/05/05 06:47:39;;;;;;;7.17;1.53;;;;;;;5.86;89.24;95221.00;5053781;28;20071;-81
2021/05/05 06:50:07;;;;;;;4.23;1.40;;;;;;;5.76;87.90;95220.31;5057106;28;20029;-80
2021/05/05 06:52:32;;;;;;;7.73;1.77;;;;;;;5.87;88.51;95214.03;5055077;28;20020;-81
2021/05/05 06:54:58;;;;;;;3.83;1.40;;;;;;;5.96;87.86;95213.09;5063511;28;20063;-81
2021/05/05 06:57:24;;;;;;;5.50;1.50;;;;;;;6.09;87.95;95217.91;5055701;28;20032;-82
2021/05/05 06:59:52;;;;;;;4.27;1.37;;;;;;;6.16;87.43;95218.91;5070784;28;20032;-81
2021/05/05 07:02:17;;;;;;;5.97;2.43;;;;;;;6.40;87.76;95225.19;5056635;28;20033;-82
2021/05/05 07:04:43;;;;;;;5.10;1.10;;;;;;;6.35;87.60;95228.28;5061478;28;20029;-81
2021/05/05 07:07:12;;;;;;;3.57;1.30;;;;;;;6.56;85.89;95227.84;5076818;28;20020;-82
2021/05/05 07:09:37;;;;;;;4.33;1.33;;;;;;;6.69;86.43;95219.56;5053678;28;20678;-79
2021/05/05 07:12:07;;;;;;;4.20;1.00;;;;;;;6.42;85.74;95236.31;5061223;28;20024;-80
2021/05/05 07:14:32;;;;;;;3.67;1.27;;;;;;;6.54;86.62;95228.03;5064610;28;20029;-82
2021/05/05 07:17:02;;;;;;;3.27;1.10;;;;;;;6.43;83.28;95232.72;5063143;28;20016;-81
2021/05/05 07:19:28;;;;;;;6.00;1.60;;;;;;;6.57;84.76;95229.47;5061935;28;20086;-81
2021/05/05 07:21:53;;;;;;;2.87;1.43;;;;;;;6.81;82.98;95223.53;5054714;28;20025;-80
2021/05/05 07:24:20;;;;;;;3.70;1.20;;;;;;;6.73;82.43;95226.91;5068661;28;20029;-80
2021/05/05 07:26:45;;;;;;;7.23;3.07;;;;;;;6.83;83.45;95230.19;5076461;28;20029;-81
2021/05/05 07:29:11;;;;;;;4.17;1.10;;;;;;;7.19;80.63;95229.09;5055248;28;20048;-81
2021/05/05 07:31:37;;;;;;;4.90;1.13;;;;;;;6.90;82.19;95240.00;5064190;28;20052;-80
2021/05/05 07:34:03;;;;;;;6.37;1.70;;;;;;;7.06;81.51;95242.66;5063573;28;20112;-81
2021/05/05 07:36:29;;;;;;;4.43;1.33;;;;;;;8.37;77.77;95221.53;5049023;28;20013;-81
2021/05/05 07:47:13;;;;;;;4.93;1.23;;;;;;;8.53;72.82;95233.78;5074072;28;20151;-82
2021/05/05 07:49:46;;;;;;;4.30;1.07;;;;;;;9.93;68.42;95227.34;5055827;28;20132;-81
2021/05/05 07:52:12;;;;;;;8.00;3.95;;;;;;;10.43;64.56;95217.94;5055943;28;20379;-82
2021/05/05 07:54:38;;;;;;;5.27;1.53;;;;;;;10.04;67.35;95224.25;5063382;28;20035;-81
2021/05/05 07:57:04;;;;;;;5.40;1.30;;;;;;;9.74;66.16;95238.34;5052219;28;20029;-79
2021/05/05 07:59:30;;;;;;;8.47;1.93;;;;;;;9.31;66.55;95236.22;5061281;28;20558;-81
2021/05/05 08:01:56;;;;;;;4.73;1.00;;;;;;;9.14;65.44;95240.78;5067921;28;20033;-82
2021/05/05 08:04:21;;;;;;;6.00;1.43;;;;;;;8.62;65.51;95246.66;5057848;28;20082;-80
2021/05/05 08:06:47;;;;;;;9.50;3.00;;;;;;;9.61;63.38;95242.38;5054793;28;21049;-81
2021/05/05 08:09:13;;;;;;;8.17;1.43;;;;;;;9.81;64.72;95244.50;5043338;28;20029;-82
2021/05/05 08:11:38;;;;;;;5.27;1.10;;;;;;;9.61;62.30;95229.25;5060763;28;20071;-82
2021/05/05 08:14:04;;;;;;;4.10;1.07;;;;;;;10.69;60.10;95229.75;5064324;28;20017;-81
2021/05/05 08:16:30;;;;;;;3.80;1.40;;;;;;;9.89;63.47;95233.91;5060270;28;20045;-82
2021/05/05 08:18:56;;;;;;;7.63;1.33;;;;;;;8.54;64.58;95254.56;5059927;28;20090;-81
2021/05/05 08:21:23;;;;;;;5.73;1.33;;;;;;;8.15;65.56;95247.47;5062575;28;20090;-80
2021/05/05 08:23:50;;;;;;;4.73;1.17;;;;;;;7.89;66.78;95255.56;5056598;28;20053;-81
2021/05/05 08:26:16;;;;;;;5.80;1.27;;;;;;;7.56;67.12;95262.63;5055966;28;20078;-80
2021/05/05 08:28:42;;;;;;;6.93;1.20;;;;;;;7.36;65.97;95279.63;5054883;28;20116;-80
2021/05/05 08:31:08;;;;;;;5.93;1.20;;;;;;;7.27;66.74;95271.75;5058954;28;20429;-79
2021/05/05 08:33:34;;;;;;;5.30;1.77;;;;;;;8.32;63.88;95271.81;5041665;28;20131;-80
2021/05/05 08:36:01;;;;;;;6.50;1.60;;;;;;;8.97;62.00;95273.34;5064935;28;20383;-81
2021/05/05 08:38:26;;;;;;;7.50;1.20;;;;;;;7.98;62.00;95275.50;5041762;28;20013;-81
2021/05/05 08:40:52;;;;;;;5.53;1.57;;;;;;;9.47;58.92;95264.16;5058123;28;20028;-81
2021/05/05 08:43:18;;;;;;;6.27;1.30;;;;;;;9.75;55.65;95274.91;5056459;28;20030;-80
2021/05/05 08:45:48;;;;;;;4.03;1.57;;;;;;;10.16;53.15;95277.19;5058984;28;20036;-79
2021/05/05 08:48:14;;;;;;;4.03;1.40;;;;;;;10.33;51.08;95247.13;5059756;28;20033;-78
2021/05/05 08:50:43;;;;;;;5.40;1.10;;;;;;;9.74;50.67;95264.59;5048166;28;20052;-77
2021/05/05 08:53:09;;;;;;;4.77;1.27;;;;;;;10.53;48.35;95255.28;5061189;28;20047;-79
2021/05/05 08:55:36;;;;;;;4.67;1.33;;;;;;;10.59;51.38;95267.66;5060209;28;20063;-79
2021/05/05 08:58:02;;;;;;;3.50;1.10;;;;;;;10.23;50.93;95272.81;5065766;28;20060;-77
2021/05/05 09:00:38;;;;;;;7.47;1.60;;;;;;;10.04;52.13;95271.53;5053629;28;20047;-78
2021/05/05 09:03:07;;;;;;;7.53;1.87;;;;;;;9.91;53.93;95284.47;5064959;28;20111;-77
2021/05/05 09:05:54;;;;;;;5.57;1.30;;;;;;;10.82;53.47;95278.06;5048127;28;20021;-78
2021/05/05 09:08:22;;;;;;;9.63;1.60;;;;;;;9.49;56.55;95288.44;5058792;28;20116;-78
2021/05/05 09:10:57;;;;;;;5.43;1.47;;;;;;;9.08;57.83;95298.34;5061808;28;20048;-78
2021/05/05 09:13:47;;;;;;;5.63;1.40;;;;;;;8.98;56.13;95293.31;5051374;28;20056;-79
2021/05/05 09:16:34;;;;;;;7.00;1.50;;;;;;;8.37;59.22;95306.16;5046006;28;20040;-79
2021/05/05 09:19:10;;;;;;;4.40;1.47;;;;;;;8.66;57.48;95313.47;5041283;28;20068;-78
2021/05/05 09:21:52;;;;;;;8.17;3.97;;;;;;;8.46;57.57;95313.06;5046876;28;20126;-79
2021/05/05 09:24:28;;;;;;;3.87;1.27;;;;;;;8.11;52.81;95308.19;5062899;28;20037;-79
2021/05/05 09:26:57;;;;;;;4.47;1.10;;;;;;;7.84;52.18;95314.59;5053163;28;20529;-79
2021/05/05 09:29:54;;;;;;;7.03;1.43;;;;;;;7.85;52.50;95324.13;5069246;28;20033;-80
2021/05/05 09:32:21;;;;;;;6.07;2.00;;;;;;;10.19;47.76;95315.38;5050708;28;20041;-79
2021/05/05 09:34:56;;;;;;;8.90;2.53;;;;;;;10.77;49.36;95311.19;5057997;28;20020;-79
2021/05/05 09:37:24;;;;;;;4.23;1.37;;;;;;;11.46;45.85;95303.66;5054675;28;20055;-78
2021/05/05 09:40:15;;;;;;;5.37;1.17;;;;;;;11.71;46.14;95303.31;5058926;28;20024;-79
2021/05/05 09:42:41;;;;;;;4.17;1.20;;;;;;;12.32;44.30;95294.88;5064842;28;20093;-78
2021/05/05 09:45:11;;;;;;;3.67;1.00;;;;;;;12.62;40.08;95300.75;5070924;28;20627;-79
2021/05/05 09:47:49;;;;;;;5.80;1.17;;;;;;;12.90;41.19;95293.56;5050754;28;20028;-79
2021/05/05 09:50:36;;;;;;;5.20;1.17;;;;;;;12.56;41.81;95301.53;5059446;28;20097;-79
2021/05/05 09:53:25;;;;;;;7.00;2.00;;;;;;;12.65;40.36;95285.34;5049738;28;20092;-79
2021/05/05 09:55:53;;;;;;;8.63;2.00;;;;;;;10.42;45.25;95300.41;5052129;28;20028;-80
2021/05/05 09:58:25;;;;;;;4.10;1.50;;;;;;;10.60;44.63;95295.59;5056037;28;20021;-79
2021/05/05 10:01:08;;;;;;;7.30;2.43;;;;;;;11.87;41.99;95286.44;5061391;28;20028;-79
2021/05/05 10:03:55;;;;;;;4.93;1.47;;;;;;;11.19;44.43;95289.41;5040091;28;20445;-79
2021/05/05 10:06:22;;;;;;;4.90;1.17;;;;;;;10.11;44.83;95290.03;5054314;28;20036;-79
2021/05/05 10:08:52;;;;;;;4.70;1.57;;;;;;;9.60;45.13;95292.44;5065613;28;20024;-79
2021/05/05 10:11:24;;;;;;;7.47;1.10;;;;;;;10.09;42.61;95295.47;5067434;28;20127;-79
2021/05/05 10:13:52;;;;;;;3.73;0.83;;;;;;;11.19;39.88;95288.59;5061613;28;20025;-79
2021/05/05 10:16:23;;;;;;;1.53;0.90;;;;;;;9.94;42.84;95284.09;5061092;28;20037;-79
2021/05/05 10:18:49;;;;;;;6.70;2.33;;;;;;;10.70;42.63;95284.00;5055481;28;20070;-81
2021/05/05 10:21:24;;;;;;;7.73;3.07;;;;;;;11.71;41.07;95282.25;5044344;28;20059;-78
2021/05/05 10:23:52;;;;;;;9.80;2.77;;;;;;;12.95;38.91;95279.81;5061345;28;20037;-78
2021/05/05 10:26:22;;;;;;;5.07;1.40;;;;;;;13.12;38.73;95285.53;5049705;28;20071;-78
2021/05/05 10:28:48;;;;;;;7.23;1.53;;;;;;;13.79;38.42;95275.97;5059211;28;20045;-79
2021/05/05 10:31:18;;;;;;;2.67;0.80;;;;;;;14.29;37.40;95277.16;5051856;28;20029;-78
2021/05/05 10:33:47;;;;;;;3.27;0.93;;;;;;;14.00;37.71;95283.69;5064724;28;20056;-80
2021/05/05 10:36:31;;;;;;;5.70;1.40;;;;;;;12.65;38.99;95287.19;5045420;28;20029;-79
2021/05/05 10:38:58;;;;;;;5.28;1.45;;;;;;;12.83;36.98;95287.44;5037346;28;20061;-78
2021/05/05 10:41:29;;;;;;;3.37;1.53;;;;;;;11.07;40.07;95296.19;5054936;28;20041;-78
2021/05/05 10:43:58;;;;;;;8.40;3.43;;;;;;;10.44;41.95;95311.56;5057172;28;20486;-78
2021/05/05 10:46:36;;;;;;;4.70;1.20;;;;;;;10.32;43.08;95318.25;5066772;28;20020;-78
2021/05/05 10:49:04;;;;;;;1.80;0.80;;;;;;;10.05;43.86;95319.63;5056629;28;20410;-79
2021/05/05 10:51:53;;;;;;;2.90;0.80;;;;;;;10.04;47.31;95320.63;5060504;28;20052;-79
2021/05/05 10:54:22;;;;;;;3.13;1.00;;;;;;;10.17;48.20;95327.91;5071658;28;20145;-80
2021/05/05 10:57:11;;;;;;;4.23;1.20;;;;;;;10.66;46.47;95330.03;5063127;28;20029;-79
2021/05/05 11:00:14;;;;;;;4.07;1.50;;;;;;;13.52;40.54;95318.19;5054223;28;20036;-80
2021/05/05 11:02:53;;;;;;;4.87;0.93;;;;;;;11.32;43.35;95330.84;5013599;28;20044;-80
2021/05/05 11:05:28;;;;;;;3.00;1.00;;;;;;;10.66;42.30;95345.81;5061649;28;20533;-80
2021/05/05 11:07:59;;;;;;;4.93;1.07;;;;;;;12.32;38.40;95331.78;5059847;28;20037;-80
2021/05/05 11:10:30;;;;;;;4.57;1.00;;;;;;;12.79;38.85;95338.19;5063809;28;20571;-81
2021/05/05 11:12:59;;;;;;;2.57;1.07;;;;;;;12.89;39.41;95343.91;5070719;28;20071;-80
2021/05/05 11:15:40;;;;;;;4.50;1.13;;;;;;;13.33;37.91;95337.44;5074881;28;20143;-80
2021/05/05 11:18:28;;;;;;;8.57;1.30;;;;;;;14.48;35.31;95330.22;5061948;28;20071;-81
2021/05/05 11:20:55;;;;;;;3.27;0.93;;;;;;;13.85;36.18;95333.28;5060531;28;20033;-81
2021/05/05 11:23:41;;;;;;;3.13;0.93;;;;;;;13.54;37.79;95341.75;5068560;28;20049;-80
2021/05/05 11:26:13;;;;;;;7.00;1.13;;;;;;;12.20;37.55;95344.66;5058985;28;20037;-82
2021/05/05 11:29:01;;;;;;;3.20;0.90;;;;;;;11.06;41.27;95373.47;5058434;28;20036;-81
2021/05/05 11:31:49;;;;;;;3.20;1.43;;;;;;;8.83;49.38;95426.97;5056193;28;20498;-79
2021/05/05 11:34:23;;;;;;;3.27;0.60;;;;;;;7.49;64.42;95469.13;5056637;28;20024;-78
2021/05/05 11:37:09;;;;;;;3.20;0.73;;;;;;;6.40;72.39;95507.22;5062349;28;20040;-80
2021/05/05 11:39:48;;;;;;;1.70;0.40;;;;;;;5.61;77.56;95533.06;5063369;28;20033;-79
2021/05/05 11:42:25;;;;;;;4.67;2.60;;;;;;;5.40;76.79;95540.31;5048640;28;20036;-78
2021/05/05 11:44:54;;;;;;;4.30;1.87;;;;;;;5.23;79.68;95549.72;5068139;28;20020;-79
2021/05/05 11:47:25;;;;;;;0.90;0.50;;;;;;;5.08;79.66;95551.13;5053063;28;20390;-81
2021/05/05 11:49:58;;;;;;;3.10;0.67;;;;;;;5.00;80.81;95564.03;5056364;28;20040;-79
2021/05/05 11:52:27;;;;;;;2.40;0.52;;;;;;;4.81;80.45;95568.31;5063259;28;20136;-79
2021/05/05 11:54:57;;;;;;;2.93;0.80;;;;;;;4.81;80.31;95570.13;5064455;28;20068;-79